createdAt,value
2024-05-09T00:00:42.931Z,536
2024-05-09T00:01:45.078Z,535.7
2024-05-09T00:02:47.349Z,535.8
2024-05-09T00:03:49.695Z,535.6
2024-05-09T00:04:52.177Z,535.5
2024-05-09T00:05:54.503Z,535.6
2024-05-09T00:06:56.238Z,535.2
2024-05-09T00:07:58.400Z,535.2
2024-05-09T00:09:00.136Z,535.3
2024-05-09T00:10:03.137Z,535.2
2024-05-09T00:11:06.541Z,535.1
2024-05-09T00:12:09.859Z,535.6
2024-05-09T00:13:12.210Z,535.3
2024-05-09T00:14:14.327Z,535.3
2024-05-09T00:15:16.139Z,535.2
2024-05-09T00:16:17.912Z,535
2024-05-09T00:17:20.432Z,535.1
2024-05-09T00:18:23.361Z,534.9
2024-05-09T00:19:26.119Z,535.1
2024-05-09T00:20:41.930Z,535
2024-05-09T00:21:43.703Z,535
2024-05-09T00:22:45.757Z,535.1
2024-05-09T00:23:47.578Z,535.3
2024-05-09T00:24:49.353Z,535.2
2024-05-09T00:25:51.481Z,535.1
2024-05-09T00:26:53.214Z,535.1
2024-05-09T00:27:54.979Z,535.4
2024-05-09T00:28:57.051Z,535.3
2024-05-09T00:29:58.890Z,535.5
2024-05-09T00:31:00.603Z,535.5
2024-05-09T00:32:03.158Z,536
2024-05-09T00:33:11.653Z,536.1
2024-05-09T00:34:14.397Z,536.2
2024-05-09T00:35:16.537Z,536.1
2024-05-09T00:36:18.360Z,536
2024-05-09T00:37:20.090Z,536.2
2024-05-09T00:38:22.082Z,536.2
2024-05-09T00:39:23.786Z,536.1
2024-05-09T00:40:44.023Z,536.3
2024-05-09T00:41:46.148Z,536.4
2024-05-09T00:42:48.007Z,536.3
2024-05-09T00:43:50.083Z,536.3
2024-05-09T00:44:51.888Z,536.2
2024-05-09T00:45:53.621Z,536.6
2024-05-09T00:46:55.802Z,536.6
2024-05-09T00:47:58.523Z,536.5
2024-05-09T00:49:01.152Z,536.2
2024-05-09T00:50:22.646Z,536.4
2024-05-09T00:51:27.689Z,536.4
2024-05-09T00:52:29.387Z,536.5
2024-05-09T00:53:31.841Z,536.5
2024-05-09T00:54:33.730Z,536.1
2024-05-09T00:55:35.997Z,536.5
2024-05-09T00:56:38.092Z,536.2
2024-05-09T00:57:40.110Z,535.9
2024-05-09T00:58:41.807Z,536
2024-05-09T00:59:43.584Z,535.8
2024-05-09T01:00:46.127Z,535.9
2024-05-09T01:01:48.750Z,535.8
2024-05-09T01:02:51.384Z,535.9
2024-05-09T01:03:54.355Z,535.7
2024-05-09T01:04:57.095Z,535.7
2024-05-09T01:05:59.316Z,535.7
2024-05-09T01:07:01.061Z,535.5
2024-05-09T01:08:03.942Z,535.7
2024-05-09T01:09:05.781Z,535.6
2024-05-09T01:10:35.570Z,535.9
2024-05-09T01:11:38.790Z,535.5
2024-05-09T01:12:40.912Z,535.8
2024-05-09T01:13:42.943Z,535.8
2024-05-09T01:14:44.691Z,535.6
2024-05-09T01:15:46.498Z,535.5
2024-05-09T01:16:48.557Z,535.6
2024-05-09T01:17:51.496Z,535.9
2024-05-09T01:18:54.249Z,535.4
2024-05-09T01:19:56.344Z,535.7
2024-05-09T01:20:58.672Z,535.5
2024-05-09T01:22:00.641Z,535.3
2024-05-09T01:23:02.854Z,535.7
2024-05-09T01:24:04.697Z,535.9
2024-05-09T01:25:06.530Z,535.9
2024-05-09T01:26:08.454Z,536
2024-05-09T01:27:10.159Z,536.6
2024-05-09T01:28:11.853Z,535.8
2024-05-09T01:29:13.901Z,536.4
2024-05-09T01:30:37.547Z,536.2
2024-05-09T01:31:40.463Z,536.6
2024-05-09T01:32:43.095Z,536.7
2024-05-09T01:33:46.022Z,536.4
2024-05-09T01:34:53.094Z,536.7
2024-05-09T01:35:54.808Z,536.5
2024-05-09T01:36:56.498Z,536.2
2024-05-09T01:37:58.607Z,536.4
2024-05-09T01:39:00.434Z,536.2
2024-05-09T01:40:02.179Z,536.3
2024-05-09T01:41:04.170Z,536.1
2024-05-09T01:42:06.009Z,536.3
2024-05-09T01:43:11.917Z,536.3
2024-05-09T01:44:14.473Z,536.2
2024-05-09T01:45:16.323Z,536.4
2024-05-09T01:46:18.107Z,536.2
2024-05-09T01:47:20.612Z,536
2024-05-09T01:48:23.460Z,536
2024-05-09T01:49:26.254Z,536
2024-05-09T01:50:44.093Z,535.8
2024-05-09T01:51:45.906Z,536
2024-05-09T01:52:47.978Z,535.8
2024-05-09T01:53:49.881Z,536
2024-05-09T01:54:51.690Z,536.1
2024-05-09T01:55:53.616Z,535.9
2024-05-09T01:56:55.348Z,536.1
2024-05-09T01:57:57.109Z,536.4
2024-05-09T01:58:59.098Z,536.3
2024-05-09T02:00:01.119Z,536.5
2024-05-09T02:01:03.313Z,536.4
2024-05-09T02:02:06.186Z,536
2024-05-09T02:03:10.147Z,536
2024-05-09T02:04:14.061Z,536.7
2024-05-09T02:05:16.885Z,536.5
2024-05-09T02:06:18.769Z,536.6
2024-05-09T02:07:20.652Z,537.1
2024-05-09T02:08:23.321Z,536.6
2024-05-09T02:09:25.038Z,536.7
2024-05-09T02:10:34.252Z,536.5
2024-05-09T02:11:36.664Z,536.8
2024-05-09T02:12:38.480Z,536.8
2024-05-09T02:13:40.241Z,536.7
2024-05-09T02:14:41.987Z,536.4
2024-05-09T02:15:43.804Z,536.6
2024-05-09T02:16:45.995Z,536.6
2024-05-09T02:17:48.899Z,536.3
2024-05-09T02:18:52.400Z,536.3
2024-05-09T02:19:54.488Z,536.3
2024-05-09T02:20:56.594Z,536.3
2024-05-09T02:21:58.467Z,536.2
2024-05-09T02:23:00.630Z,536.1
2024-05-09T02:24:02.499Z,536.2
2024-05-09T02:25:04.242Z,536.1
2024-05-09T02:26:06.120Z,536.1
2024-05-09T02:27:07.954Z,536
2024-05-09T02:28:09.674Z,536.4
2024-05-09T02:29:12.092Z,535.9
2024-05-09T02:30:42.277Z,536.1
2024-05-09T02:31:45.318Z,536
2024-05-09T02:32:48.347Z,536.4
2024-05-09T02:33:51.637Z,536.1
2024-05-09T02:34:53.858Z,536.3
2024-05-09T02:35:55.640Z,536
2024-05-09T02:36:57.336Z,536.6
2024-05-09T02:37:59.800Z,536.2
2024-05-09T02:39:01.893Z,536.3
2024-05-09T02:40:14.229Z,536.3
2024-05-09T02:41:16.915Z,536.5
2024-05-09T02:42:18.738Z,536.5
2024-05-09T02:43:20.467Z,536.3
2024-05-09T02:44:22.600Z,536.1
2024-05-09T02:45:24.454Z,536.3
2024-05-09T02:46:26.153Z,536.3
2024-05-09T02:47:28.837Z,535.8
2024-05-09T02:48:31.338Z,535.9
2024-05-09T02:49:33.774Z,535.8
2024-05-09T02:50:41.955Z,535.9
2024-05-09T02:51:43.956Z,535.5
2024-05-09T02:52:46.058Z,535.9
2024-05-09T02:53:47.975Z,535.8
2024-05-09T02:54:49.714Z,536
2024-05-09T02:55:51.767Z,536.5
2024-05-09T02:56:53.482Z,536.2
2024-05-09T02:57:55.171Z,536.6
2024-05-09T02:58:57.384Z,536.5
2024-05-09T02:59:59.171Z,536.6
2024-05-09T03:01:01.280Z,536.8
2024-05-09T03:02:03.875Z,536.6
2024-05-09T03:03:07.483Z,536.8
2024-05-09T03:04:10.210Z,536.9
2024-05-09T03:05:12.749Z,536.7
2024-05-09T03:06:14.525Z,536.6
2024-05-09T03:07:20.704Z,536.8
2024-05-09T03:08:22.988Z,536.9
2024-05-09T03:09:24.745Z,536.7
2024-05-09T03:10:39.833Z,537
2024-05-09T03:11:42.622Z,536.9
2024-05-09T03:12:44.855Z,537.3
2024-05-09T03:13:46.874Z,537
2024-05-09T03:14:48.596Z,537.1
2024-05-09T03:15:50.326Z,537
2024-05-09T03:16:52.360Z,536.7
2024-05-09T03:17:55.004Z,536.6
2024-05-09T03:18:57.469Z,536.5
2024-05-09T03:19:59.655Z,536.3
2024-05-09T03:21:02.096Z,536.6
2024-05-09T03:22:04.049Z,536.4
2024-05-09T03:23:07.126Z,536.2
2024-05-09T03:24:08.957Z,536.3
2024-05-09T03:25:10.707Z,536.1
2024-05-09T03:26:13.207Z,536
2024-05-09T03:27:15.037Z,536
2024-05-09T03:28:16.756Z,536.1
2024-05-09T03:29:19.038Z,535.9
2024-05-09T03:30:43.684Z,536
2024-05-09T03:31:46.034Z,535.9
2024-05-09T03:32:49.159Z,536.3
2024-05-09T03:33:52.210Z,536.3
2024-05-09T03:34:54.289Z,536.4
2024-05-09T03:35:56.192Z,536.8
2024-05-09T03:36:57.926Z,536.1
2024-05-09T03:38:00.004Z,536.3
2024-05-09T03:39:01.745Z,536.1
2024-05-09T03:40:14.595Z,536.4
2024-05-09T03:41:22.554Z,536.5
2024-05-09T03:42:24.449Z,536.3
2024-05-09T03:43:26.148Z,536.1
2024-05-09T03:44:28.575Z,536.1
2024-05-09T03:45:30.404Z,536
2024-05-09T03:46:32.102Z,536
2024-05-09T03:47:34.841Z,536.1
2024-05-09T03:48:37.354Z,536
2024-05-09T03:49:39.563Z,536.1
2024-05-09T03:50:42.242Z,536
2024-05-09T03:51:44.122Z,536
2024-05-09T03:52:46.258Z,535.6
2024-05-09T03:53:48.438Z,535.8
2024-05-09T03:54:50.228Z,535.8
2024-05-09T03:55:52.368Z,536
2024-05-09T03:56:54.235Z,536
2024-05-09T03:57:55.985Z,536.2
2024-05-09T03:58:57.809Z,535.9
2024-05-09T03:59:59.551Z,536.1
2024-05-09T04:01:04.198Z,536
2024-05-09T04:02:06.811Z,536
2024-05-09T04:03:14.435Z,536.1
2024-05-09T04:04:16.639Z,536
2024-05-09T04:05:18.670Z,536.3
2024-05-09T04:06:20.419Z,536.6
2024-05-09T04:07:22.192Z,536.3
2024-05-09T04:08:24.295Z,536.4
2024-05-09T04:09:26.080Z,536.2
2024-05-09T04:10:36.129Z,536.6
2024-05-09T04:11:38.581Z,536.7
2024-05-09T04:12:40.471Z,537.1
2024-05-09T04:13:42.185Z,537
2024-05-09T04:14:43.913Z,537.3
2024-05-09T04:15:45.611Z,537.3
2024-05-09T04:16:47.654Z,537.1
2024-05-09T04:17:50.891Z,537.4
2024-05-09T04:18:53.672Z,537.4
2024-05-09T04:19:55.844Z,537.2
2024-05-09T04:20:57.768Z,537.2
2024-05-09T04:21:59.534Z,537.2
2024-05-09T04:23:01.708Z,537.3
2024-05-09T04:24:03.591Z,537.2
2024-05-09T04:25:05.373Z,537.2
2024-05-09T04:26:07.344Z,536.8
2024-05-09T04:27:09.361Z,536.7
2024-05-09T04:28:11.052Z,536.7
2024-05-09T04:29:13.348Z,536.6
2024-05-09T04:30:42.045Z,536.9
2024-05-09T04:31:45.051Z,536.5
2024-05-09T04:32:47.809Z,536.8
2024-05-09T04:33:50.658Z,536.7
2024-05-09T04:34:52.767Z,536.9
2024-05-09T04:35:54.473Z,536.9
2024-05-09T04:36:56.217Z,537.2
2024-05-09T04:37:58.002Z,537.2
2024-05-09T04:38:59.753Z,537.2
2024-05-09T04:40:01.468Z,536.8
2024-05-09T04:41:03.673Z,537
2024-05-09T04:42:05.475Z,536.8
2024-05-09T04:43:08.227Z,536.9
2024-05-09T04:44:10.144Z,536.9
2024-05-09T04:45:11.928Z,536.8
2024-05-09T04:46:13.636Z,536.8
2024-05-09T04:47:16.179Z,536.7
2024-05-09T04:48:19.192Z,536.7
2024-05-09T04:49:21.907Z,536.6
2024-05-09T04:50:40.446Z,536.6
2024-05-09T04:51:42.369Z,536.5
2024-05-09T04:52:44.488Z,536.3
2024-05-09T04:53:46.550Z,536.4
2024-05-09T04:54:48.336Z,536
2024-05-09T04:55:50.748Z,536.2
2024-05-09T04:56:52.501Z,536.1
2024-05-09T04:57:54.251Z,536.2
2024-05-09T04:58:56.410Z,536
2024-05-09T04:59:58.219Z,536.1
2024-05-09T05:01:00.311Z,535.8
2024-05-09T05:02:02.747Z,535.9
2024-05-09T05:03:06.297Z,535.5
2024-05-09T05:04:09.539Z,535.6
2024-05-09T05:05:13.213Z,535.2
2024-05-09T05:06:15.123Z,535.1
2024-05-09T05:07:16.872Z,535.1
2024-05-09T05:08:20.636Z,535
2024-05-09T05:09:22.512Z,534.9
2024-05-09T05:10:37.297Z,535
2024-05-09T05:11:39.578Z,534.8
2024-05-09T05:12:41.488Z,534.9
2024-05-09T05:13:43.196Z,534.6
2024-05-09T05:14:44.946Z,534.8
2024-05-09T05:15:46.783Z,534.7
2024-05-09T05:16:48.958Z,534.6
2024-05-09T05:17:51.955Z,534.4
2024-05-09T05:18:54.443Z,534.4
2024-05-09T05:19:56.938Z,534.4
2024-05-09T05:20:59.894Z,533.9
2024-05-09T05:22:01.667Z,534.4
2024-05-09T05:23:03.908Z,534.1
2024-05-09T05:24:05.758Z,534
2024-05-09T05:25:07.539Z,533.8
2024-05-09T05:26:09.641Z,533.9
2024-05-09T05:27:11.460Z,533.9
2024-05-09T05:28:13.238Z,533.8
2024-05-09T05:29:21.532Z,533.6
2024-05-09T05:30:35.684Z,533.6
2024-05-09T05:31:37.888Z,533.7
2024-05-09T05:32:40.322Z,533.9
2024-05-09T05:33:42.961Z,533.7
2024-05-09T05:34:45.210Z,533.6
2024-05-09T05:35:47.014Z,533.2
2024-05-09T05:36:48.744Z,533.3
2024-05-09T05:37:50.643Z,533.2
2024-05-09T05:38:52.812Z,533.4
2024-05-09T05:39:54.823Z,533.3
2024-05-09T05:40:57.418Z,533.1
2024-05-09T05:41:59.296Z,532.9
2024-05-09T05:43:01.012Z,532.7
2024-05-09T05:44:03.129Z,532.7
2024-05-09T05:45:10.228Z,532.9
2024-05-09T05:46:11.928Z,532.6
2024-05-09T05:47:14.436Z,532.8
2024-05-09T05:48:19.238Z,532.6
2024-05-09T05:49:24.686Z,533
2024-05-09T05:50:39.310Z,532.4
2024-05-09T05:51:41.210Z,532.7
2024-05-09T05:52:42.893Z,532.8
2024-05-09T05:53:45.060Z,532.4
2024-05-09T05:54:46.879Z,532.8
2024-05-09T05:55:49.061Z,532.8
2024-05-09T05:56:50.785Z,532.7
2024-05-09T05:57:52.705Z,532.5
2024-05-09T05:58:54.972Z,532.5
2024-05-09T05:59:56.777Z,532.8
2024-05-09T06:00:58.782Z,532.4
2024-05-09T06:02:00.915Z,532.5
2024-05-09T06:03:03.344Z,532.5
2024-05-09T06:04:06.085Z,532.4
2024-05-09T06:05:08.566Z,532.3
2024-05-09T06:06:10.719Z,532.4
2024-05-09T06:07:12.475Z,532.3
2024-05-09T06:08:15.289Z,532.6
2024-05-09T06:09:17.192Z,532.4
2024-05-09T06:10:41.454Z,532.5
2024-05-09T06:11:44.427Z,532.7
2024-05-09T06:12:46.263Z,532.7
2024-05-09T06:13:48.301Z,532.8
2024-05-09T06:14:50.150Z,532.6
2024-05-09T06:15:51.985Z,532.6
2024-05-09T06:16:58.882Z,532.5
2024-05-09T06:18:02.521Z,532.4
2024-05-09T06:19:05.355Z,532.4
2024-05-09T06:20:37.082Z,532.7
2024-05-09T06:21:40.048Z,532.4
2024-05-09T06:22:41.783Z,532.6
2024-05-09T06:23:43.866Z,532.3
2024-05-09T06:24:45.711Z,532.6
2024-05-09T06:25:47.937Z,532.3
2024-05-09T06:26:49.725Z,532.4
2024-05-09T06:27:51.474Z,532.4
2024-05-09T06:28:53.643Z,532.1
2024-05-09T06:29:55.549Z,532.6
2024-05-09T06:30:57.380Z,532.2
2024-05-09T06:32:01.661Z,532.3
2024-05-09T06:33:05.271Z,532.6
2024-05-09T06:34:08.099Z,532.2
2024-05-09T06:35:10.404Z,532.4
2024-05-09T06:36:12.222Z,532.6
2024-05-09T06:37:13.979Z,532.4
2024-05-09T06:38:16.173Z,532.3
2024-05-09T06:39:17.979Z,532.5
2024-05-09T06:40:41.456Z,532.4
2024-05-09T06:41:45.385Z,532.3
2024-05-09T06:42:47.167Z,532.6
2024-05-09T06:43:49.234Z,532.7
2024-05-09T06:44:51.019Z,532.5
2024-05-09T06:45:53.313Z,532.7
2024-05-09T06:47:00.844Z,532.5
2024-05-09T06:48:03.653Z,532.7
2024-05-09T06:49:06.641Z,532.5
2024-05-09T06:50:35.591Z,532.7
2024-05-09T06:51:39.805Z,532.5
2024-05-09T06:52:41.558Z,532.2
2024-05-09T06:53:43.723Z,532.6
2024-05-09T06:54:45.609Z,532.5
2024-05-09T06:55:47.825Z,532.7
2024-05-09T06:56:49.628Z,532.5
2024-05-09T06:57:51.365Z,532.7
2024-05-09T06:58:53.541Z,532.3
2024-05-09T06:59:55.456Z,532.3
2024-05-09T07:00:57.347Z,532.5
2024-05-09T07:01:59.280Z,532.4
2024-05-09T07:03:06.895Z,532.5
2024-05-09T07:04:09.934Z,532.5
2024-05-09T07:05:12.373Z,532.2
2024-05-09T07:06:14.529Z,531.9
2024-05-09T07:07:16.336Z,531.9
2024-05-09T07:08:19.514Z,531.7
2024-05-09T07:09:21.383Z,532.1
2024-05-09T07:10:37.499Z,531.9
2024-05-09T07:11:40.022Z,531.6
2024-05-09T07:12:41.871Z,531.2
2024-05-09T07:13:43.645Z,531.2
2024-05-09T07:14:45.726Z,531.5
2024-05-09T07:15:47.468Z,531.5
2024-05-09T07:16:49.765Z,531.2
2024-05-09T07:17:52.640Z,531.5
2024-05-09T07:18:56.395Z,531.2
2024-05-09T07:19:58.473Z,530.9
2024-05-09T07:21:00.551Z,531.2
2024-05-09T07:22:02.430Z,531.4
2024-05-09T07:23:04.752Z,531.1
2024-05-09T07:24:06.692Z,530.6
2024-05-09T07:25:08.438Z,530.9
2024-05-09T07:26:10.501Z,530.6
2024-05-09T07:27:12.290Z,530.4
2024-05-09T07:28:14.243Z,530.6
2024-05-09T07:29:16.382Z,530.6
2024-05-09T07:30:35.473Z,530.7
2024-05-09T07:31:37.292Z,530.4
2024-05-09T07:32:40.075Z,530.8
2024-05-09T07:33:42.636Z,530.3
2024-05-09T07:34:44.522Z,530.4
2024-05-09T07:35:46.893Z,530.4
2024-05-09T07:36:48.677Z,530.4
2024-05-09T07:37:50.633Z,530.2
2024-05-09T07:38:52.807Z,530.3
2024-05-09T07:39:54.529Z,529.9
2024-05-09T07:40:56.403Z,529.8
2024-05-09T07:41:58.129Z,530.2
2024-05-09T07:42:59.874Z,530.1
2024-05-09T07:44:02.085Z,529.7
2024-05-09T07:45:56.429Z,529.9
2024-05-09T07:49:45.306Z,529.4
2024-05-09T07:53:52.228Z,528.7
2024-05-09T07:54:57.732Z,528.5
2024-05-09T07:56:00.591Z,528.5
2024-05-09T07:57:03.274Z,528.4
2024-05-09T07:58:05.693Z,528.5
2024-05-09T07:59:07.614Z,528.5
2024-05-09T08:00:31.766Z,528.4
2024-05-09T08:01:34.871Z,528.4
2024-05-09T08:02:37.197Z,528.3
2024-05-09T08:03:40.102Z,528.5
2024-05-09T08:04:42.670Z,528.6
2024-05-09T08:05:44.988Z,528.6
2024-05-09T08:06:46.946Z,528.3
2024-05-09T08:07:48.781Z,528.5
2024-05-09T08:08:50.603Z,528.5
2024-05-09T08:09:52.719Z,528.4
2024-05-09T08:10:54.954Z,528.2
2024-05-09T08:11:57.112Z,528.1
2024-05-09T08:12:59.282Z,528.1
2024-05-09T08:14:01.000Z,527.7
2024-05-09T08:15:02.853Z,527.9
2024-05-09T08:16:05.209Z,528
2024-05-09T08:17:07.526Z,527.6
2024-05-09T08:18:10.468Z,527.8
2024-05-09T08:19:13.372Z,527.7
2024-05-09T08:20:35.872Z,527.8
2024-05-09T08:21:37.969Z,527.1
2024-05-09T08:22:39.780Z,527.2
2024-05-09T08:23:44.618Z,527
2024-05-09T08:24:46.927Z,527.1
2024-05-09T08:25:48.782Z,526.8
2024-05-09T08:26:50.528Z,526.5
2024-05-09T08:27:53.031Z,526.5
2024-05-09T08:28:54.863Z,526.4
2024-05-09T08:29:56.955Z,526.5
2024-05-09T08:31:02.382Z,526.2
2024-05-09T08:32:06.558Z,526.4
2024-05-09T08:33:09.280Z,526.7
2024-05-09T08:34:12.407Z,526.4
2024-05-09T08:35:14.350Z,526.3
2024-05-09T08:36:16.068Z,526.1
2024-05-09T08:37:38.746Z,526.4
2024-05-09T08:38:42.237Z,526.3
2024-05-09T08:39:44.196Z,526.5
2024-05-09T08:40:46.834Z,526.3
2024-05-09T08:41:48.703Z,526.2
2024-05-09T08:42:50.876Z,526.8
2024-05-09T08:43:52.906Z,526.8
2024-05-09T08:44:54.621Z,526.9
2024-05-09T08:45:56.752Z,526.9
2024-05-09T08:46:58.626Z,526.7
2024-05-09T08:48:01.313Z,526.9
2024-05-09T08:49:04.603Z,526.5
2024-05-09T08:50:38.522Z,526.5
2024-05-09T08:51:41.738Z,526.9
2024-05-09T08:52:43.494Z,527
2024-05-09T08:53:45.229Z,526.7
2024-05-09T08:54:47.364Z,526.4
2024-05-09T08:55:49.268Z,526.8
2024-05-09T08:56:51.071Z,527
2024-05-09T08:57:53.448Z,526.6
2024-05-09T08:58:55.227Z,526.9
2024-05-09T08:59:57.019Z,526.7
2024-05-09T09:00:59.376Z,526.5
2024-05-09T09:02:01.900Z,526.5
2024-05-09T09:03:04.144Z,526.3
2024-05-09T09:04:06.566Z,526.5
2024-05-09T09:05:09.274Z,526.5
2024-05-09T09:06:11.703Z,526.7
2024-05-09T09:07:13.743Z,526.6
2024-05-09T09:08:15.760Z,526.6
2024-05-09T09:09:17.481Z,526.4
2024-05-09T09:10:34.209Z,526.8
2024-05-09T09:11:36.535Z,527.1
2024-05-09T09:12:38.385Z,527.2
2024-05-09T09:13:40.204Z,527.2
2024-05-09T09:14:41.980Z,527.3
2024-05-09T09:15:44.057Z,527.1
2024-05-09T09:16:45.933Z,527.2
2024-05-09T09:17:48.317Z,527.5
2024-05-09T09:18:51.361Z,527.1
2024-05-09T09:19:53.800Z,527.1
2024-05-09T09:20:55.817Z,526.9
2024-05-09T09:21:57.919Z,527
2024-05-09T09:22:59.692Z,527
2024-05-09T09:24:01.423Z,526.9
2024-05-09T09:25:03.589Z,527.3
2024-05-09T09:26:05.522Z,527.4
2024-05-09T09:27:07.454Z,527.2
2024-05-09T09:28:10.841Z,527.1
2024-05-09T09:29:12.745Z,526.9
2024-05-09T09:30:38.566Z,527.1
2024-05-09T09:31:40.641Z,527.1
2024-05-09T09:32:42.596Z,527.1
2024-05-09T09:33:45.535Z,527.1
2024-05-09T09:34:47.602Z,527.4
2024-05-09T09:35:49.369Z,527.3
2024-05-09T09:36:51.330Z,527.5
2024-05-09T09:37:53.050Z,527.3
2024-05-09T09:38:54.732Z,527.5
2024-05-09T09:39:56.568Z,527.7
2024-05-09T09:40:58.836Z,527.4
2024-05-09T09:42:00.780Z,527.6
2024-05-09T09:43:03.152Z,527.6
2024-05-09T09:44:05.055Z,527.4
2024-05-09T09:45:06.959Z,527.7
2024-05-09T09:46:13.835Z,527.6
2024-05-09T09:47:16.216Z,527.9
2024-05-09T09:48:18.598Z,527.8
2024-05-09T09:49:20.812Z,528.1
2024-05-09T09:50:35.955Z,527.9
2024-05-09T09:51:37.949Z,528
2024-05-09T09:52:39.775Z,528.3
2024-05-09T09:53:41.557Z,528.4
2024-05-09T09:54:43.670Z,528.4
2024-05-09T09:55:45.453Z,528.1
2024-05-09T09:56:47.159Z,528.4
2024-05-09T09:57:49.168Z,528.8
2024-05-09T09:58:50.985Z,528.5
2024-05-09T09:59:52.961Z,528.5
2024-05-09T10:00:55.708Z,528.6
2024-05-09T10:01:58.320Z,528.4
2024-05-09T10:03:01.555Z,528.5
2024-05-09T10:04:04.480Z,528.7
2024-05-09T10:05:07.220Z,528.8
2024-05-09T10:06:09.786Z,528.9
2024-05-09T10:07:12.096Z,528.9
2024-05-09T10:08:13.856Z,529.3
2024-05-09T10:09:15.635Z,529.3
2024-05-09T10:10:33.880Z,529.2
2024-05-09T10:12:00.577Z,529.3
2024-05-09T10:13:03.265Z,529.6
2024-05-09T10:14:05.128Z,529.6
2024-05-09T10:15:06.910Z,529.3
2024-05-09T10:16:09.564Z,529.4
2024-05-09T10:17:11.590Z,529.5
2024-05-09T10:18:15.580Z,529.3
2024-05-09T10:19:18.130Z,529.5
2024-05-09T10:20:33.367Z,529.7
2024-05-09T10:21:35.395Z,529.4
2024-05-09T10:22:37.195Z,529.6
2024-05-09T10:23:38.891Z,529.8
2024-05-09T10:24:41.054Z,529.8
2024-05-09T10:25:42.952Z,530
2024-05-09T10:26:44.690Z,529.8
2024-05-09T10:27:46.573Z,530
2024-05-09T10:28:48.324Z,529.8
2024-05-09T10:29:50.069Z,529.9
2024-05-09T10:30:52.179Z,530
2024-05-09T10:31:54.396Z,530.1
2024-05-09T10:32:57.099Z,530
2024-05-09T10:34:00.196Z,530
2024-05-09T10:35:03.157Z,530
2024-05-09T10:36:05.037Z,530
2024-05-09T10:37:07.193Z,530.1
2024-05-09T10:38:09.050Z,530.2
2024-05-09T10:39:10.751Z,530.7
2024-05-09T10:40:32.320Z,530.3
2024-05-09T10:41:34.206Z,530.7
2024-05-09T10:42:36.151Z,530.6
2024-05-09T10:43:37.968Z,530.7
2024-05-09T10:44:39.698Z,530.7
2024-05-09T10:45:41.691Z,530.2
2024-05-09T10:46:43.519Z,530.8
2024-05-09T10:47:46.124Z,530.8
2024-05-09T10:48:50.369Z,530.6
2024-05-09T10:49:53.166Z,530.6
2024-05-09T10:50:55.012Z,530.6
2024-05-09T10:51:57.074Z,530.6
2024-05-09T10:52:58.818Z,530.7
2024-05-09T10:54:00.556Z,531
2024-05-09T10:55:06.674Z,530.9
2024-05-09T10:56:08.536Z,531.2
2024-05-09T10:57:10.258Z,531.2
2024-05-09T10:58:12.704Z,531.2
2024-05-09T10:59:14.507Z,531.1
2024-05-09T11:00:37.074Z,531.4
2024-05-09T11:01:39.518Z,531.5
2024-05-09T11:02:42.322Z,531.4
2024-05-09T11:03:45.426Z,531.3
2024-05-09T11:04:47.945Z,531.4
2024-05-09T11:05:50.049Z,531.4
2024-05-09T11:06:52.104Z,531.6
2024-05-09T11:07:53.971Z,531.5
2024-05-09T11:08:55.700Z,531.5
2024-05-09T11:09:57.709Z,531.4
2024-05-09T11:10:59.826Z,531.2
2024-05-09T11:12:02.191Z,530.8
2024-05-09T11:13:04.597Z,531.2
2024-05-09T11:14:06.528Z,531.2
2024-05-09T11:15:08.228Z,531.1
2024-05-09T11:16:10.368Z,531.2
2024-05-09T11:17:12.412Z,531.3
2024-05-09T11:18:14.916Z,531.2
2024-05-09T11:19:17.812Z,531.1
2024-05-09T11:20:35.780Z,531.2
2024-05-09T11:21:37.862Z,531.2
2024-05-09T11:22:39.737Z,531
2024-05-09T11:23:42.172Z,531.5
2024-05-09T11:24:44.250Z,531.3
2024-05-09T11:25:46.166Z,531.4
2024-05-09T11:26:47.876Z,531.6
2024-05-09T11:27:50.111Z,531.9
2024-05-09T11:28:51.825Z,531.7
2024-05-09T11:29:53.619Z,532
2024-05-09T11:30:55.598Z,532
2024-05-09T11:31:57.639Z,532.1
2024-05-09T11:33:00.638Z,532.1
2024-05-09T11:34:02.895Z,531.8
2024-05-09T11:35:04.715Z,531.7
2024-05-09T11:36:06.549Z,531.7
2024-05-09T11:37:08.570Z,531.5
2024-05-09T11:38:10.411Z,532.1
2024-05-09T11:39:12.134Z,532
2024-05-09T11:40:35.083Z,532
2024-05-09T11:41:36.918Z,532.1
2024-05-09T11:42:38.711Z,532.2
2024-05-09T11:43:40.696Z,532
2024-05-09T11:44:42.448Z,532.2
2024-05-09T11:45:44.300Z,532.2
2024-05-09T11:46:46.119Z,532.2
2024-05-09T11:47:48.570Z,532.2
2024-05-09T11:48:51.409Z,532.3
2024-05-09T11:49:53.901Z,532.3
2024-05-09T11:50:56.187Z,532.2
2024-05-09T11:51:58.054Z,532.5
2024-05-09T11:52:59.862Z,532.6
2024-05-09T11:54:01.607Z,532.4
2024-05-09T11:55:03.634Z,532.5
2024-05-09T11:56:05.415Z,532.5
2024-05-09T11:57:07.154Z,532.7
2024-05-09T11:58:09.700Z,533.1
2024-05-09T11:59:11.645Z,532.7
2024-05-09T12:00:38.240Z,532.8
2024-05-09T12:01:40.674Z,533
2024-05-09T12:02:42.435Z,533
2024-05-09T12:03:45.157Z,532.8
2024-05-09T12:04:47.845Z,533
2024-05-09T12:05:50.447Z,533.2
2024-05-09T12:06:52.691Z,533.2
2024-05-09T12:07:54.504Z,533
2024-05-09T12:08:56.235Z,533
2024-05-09T12:09:58.474Z,533
2024-05-09T12:11:01.622Z,532.8
2024-05-09T12:12:03.553Z,532.8
2024-05-09T12:13:08.732Z,532.8
2024-05-09T12:14:10.616Z,532.9
2024-05-09T12:15:12.446Z,533.1
2024-05-09T12:16:15.021Z,533
2024-05-09T12:17:17.666Z,533.1
2024-05-09T12:18:19.826Z,533
2024-05-09T12:19:21.946Z,533.1
2024-05-09T12:20:40.578Z,533.2
2024-05-09T12:21:42.562Z,532.9
2024-05-09T12:22:44.416Z,533.3
2024-05-09T12:23:46.169Z,533.2
2024-05-09T12:24:48.412Z,533.3
2024-05-09T12:25:50.177Z,533.4
2024-05-09T12:26:51.892Z,533.5
2024-05-09T12:27:54.064Z,533.9
2024-05-09T12:28:55.919Z,534.1
2024-05-09T12:29:57.653Z,533.8
2024-05-09T12:30:59.766Z,534.4
2024-05-09T12:32:02.087Z,534.2
2024-05-09T12:33:05.091Z,534
2024-05-09T12:34:07.655Z,534.3
2024-05-09T12:35:09.643Z,534.5
2024-05-09T12:36:11.442Z,534.4
2024-05-09T12:37:14.026Z,534.5
2024-05-09T12:38:16.226Z,534.4
2024-05-09T12:39:17.940Z,534.3
2024-05-09T12:40:39.857Z,534.3
2024-05-09T12:41:41.916Z,534.5
2024-05-09T12:42:43.884Z,534.5
2024-05-09T12:43:45.843Z,534.4
2024-05-09T12:44:47.580Z,534.6
2024-05-09T12:45:49.752Z,534.6
2024-05-09T12:46:51.757Z,534.4
2024-05-09T12:47:53.889Z,534.3
2024-05-09T12:48:57.156Z,534.2
2024-05-09T12:49:59.305Z,534.2
2024-05-09T12:51:01.052Z,534.1
2024-05-09T12:52:03.142Z,534.5
2024-05-09T12:53:05.938Z,534.3
2024-05-09T12:54:07.785Z,533.9
2024-05-09T12:55:10.328Z,534.4
2024-05-09T12:56:12.185Z,534.2
2024-05-09T12:57:13.938Z,533.9
2024-05-09T12:58:17.377Z,534
2024-05-09T12:59:19.615Z,534.2
2024-05-09T13:00:35.126Z,534.6
2024-05-09T13:01:37.608Z,534.5
2024-05-09T13:02:40.321Z,534.6
2024-05-09T13:03:43.301Z,534.3
2024-05-09T13:04:45.862Z,534.4
2024-05-09T13:05:48.322Z,534.2
2024-05-09T13:06:50.651Z,534
2024-05-09T13:07:52.528Z,534.3
2024-05-09T13:08:54.253Z,533.9
2024-05-09T13:09:56.225Z,533.7
2024-05-09T13:10:58.286Z,533.9
2024-05-09T13:12:00.723Z,533.6
2024-05-09T13:13:03.153Z,533.7
2024-05-09T13:14:05.005Z,533.4
2024-05-09T13:15:06.734Z,533.3
2024-05-09T13:16:08.817Z,533.7
2024-05-09T13:17:10.646Z,533.7
2024-05-09T13:18:12.686Z,533.6
2024-05-09T13:19:14.679Z,533.1
2024-05-09T13:20:36.474Z,533.5
2024-05-09T13:21:38.700Z,533.5
2024-05-09T13:22:40.508Z,533.4
2024-05-09T13:23:42.331Z,533.4
2024-05-09T13:24:44.209Z,533.6
2024-05-09T13:25:46.055Z,533.4
2024-05-09T13:26:47.792Z,533.5
2024-05-09T13:27:49.709Z,533.7
2024-05-09T13:28:51.417Z,533.6
2024-05-09T13:29:53.149Z,533.5
2024-05-09T13:30:55.254Z,533.5
2024-05-09T13:31:57.126Z,533.5
2024-05-09T13:32:59.309Z,533.4
2024-05-09T13:34:02.367Z,533.5
2024-05-09T13:35:04.281Z,533.6
2024-05-09T13:36:06.176Z,533.7
2024-05-09T13:37:08.530Z,533.5
2024-05-09T13:38:10.450Z,533.2
2024-05-09T13:39:12.195Z,533.5
2024-05-09T13:40:32.107Z,533.3
2024-05-09T13:41:36.450Z,533.6
2024-05-09T13:42:38.408Z,533.2
2024-05-09T13:43:40.375Z,532.9
2024-05-09T13:44:42.124Z,533.4
2024-05-09T13:45:44.341Z,532.7
2024-05-09T13:46:46.519Z,533.1
2024-05-09T13:47:49.344Z,533